Main page

Pontianak, Indonesia

Supadio Airport

latitude: 00-09S, longitude: 109-24E, elevation: 3 m

Current weather observation

The report was made 21 minutes ago, at 08:00 UTC
Wind 7 kt from the West/Southwest
Temperature 32°C
Humidity 63%
Pressure 1009 hPa
Visibility: 6000 m
Scattered clouds at a height of 1200 ft

METAR: WIOO 070800Z 24007KT 6000 SCT012 32/24 Q1009 NOSIG

Time: 15:21 (08:21 UTC)

TAF: missing


Weather observations and forecasts of more than 4000 airports (METAR and TAF reports).

The available stations are represented by yellow and red dots on the map.

Hover mouse over dot to see the name of the station.

Then click to see weather observations and forecasts.

To change the map : click on the green buttons with a black cross to zoom in, on the green button with a dash to zoom out, or on the green arrows for adjacent maps.